Time;durP1;ratioP1;P1;durP2;ratioP2;P2;SDS_P1;SDS_P2;PMS_P1;PMS_P2;Temp;Humidity;BMP_temperature;BMP_pressure;BME280_temperature;BME280_humidity;BME280_pressure;Samples;Min_cycle;Max_cycle;Signal;HPM_P1;HPM_P2
2021/05/08 00:00:43;;;;;;;3.70;3.20;;;9.80;52.30;;;;;;5032189;28;21199;-50
2021/05/08 00:03:11;;;;;;;3.97;3.67;;;9.80;52.50;;;;;;5032131;28;20664;-50
2021/05/08 00:05:37;;;;;;;4.03;3.73;;;9.80;52.80;;;;;;5032082;28;20659;-50
2021/05/08 00:08:04;;;;;;;3.00;2.80;;;9.80;53.40;;;;;;5031574;28;21058;-50
2021/05/08 00:10:31;;;;;;;4.07;3.67;;;9.80;53.70;;;;;;5032050;28;21047;-50
2021/05/08 00:12:58;;;;;;;4.17;3.80;;;9.80;53.90;;;;;;5031466;28;20639;-50
2021/05/08 00:15:26;;;;;;;3.80;3.20;;;9.80;54.10;;;;;;5031995;28;21249;-50
2021/05/08 00:17:53;;;;;;;3.57;3.27;;;9.70;54.20;;;;;;5031676;28;21028;-50
2021/05/08 00:20:21;;;;;;;4.97;4.13;;;9.70;54.40;;;;;;5032087;28;20627;-51
2021/05/08 00:22:48;;;;;;;3.90;3.47;;;9.60;54.70;;;;;;5032267;28;20877;-50
2021/05/08 00:25:14;;;;;;;3.60;3.20;;;9.60;54.90;;;;;;5031892;28;20696;-51
2021/05/08 00:27:41;;;;;;;3.57;3.20;;;9.50;55.10;;;;;;5031286;28;20709;-51
2021/05/08 00:30:09;;;;;;;3.67;3.37;;;9.40;55.50;;;;;;5031019;28;20700;-51
2021/05/08 00:32:36;;;;;;;4.67;3.33;;;9.40;56.30;;;;;;5031205;28;20664;-50
2021/05/08 00:35:03;;;;;;;4.13;3.73;;;9.40;56.50;;;;;;5031622;28;21260;-51
2021/05/08 00:37:31;;;;;;;3.13;2.83;;;9.40;57.10;;;;;;5031036;28;21068;-50
2021/05/08 00:39:57;;;;;;;3.10;2.80;;;9.40;57.20;;;;;;5031120;28;20629;-51
2021/05/08 00:42:24;;;;;;;3.23;3.03;;;9.40;57.50;;;;;;5030884;28;21244;-51
2021/05/08 00:44:51;;;;;;;3.93;3.60;;;9.40;57.80;;;;;;5030309;28;20622;-52
2021/05/08 00:47:18;;;;;;;3.30;3.00;;;9.40;58.00;;;;;;5030582;28;21333;-50
2021/05/08 00:49:45;;;;;;;3.57;3.27;;;9.40;58.10;;;;;;5051948;22;20689;-52
2021/05/08 00:52:13;;;;;;;4.10;3.70;;;9.40;58.20;;;;;;5049825;28;20701;-52
2021/05/08 00:54:40;;;;;;;3.43;3.13;;;9.40;58.40;;;;;;5050199;28;20667;-53
2021/05/08 00:57:07;;;;;;;3.57;3.37;;;9.30;58.50;;;;;;5050785;28;20638;-53
2021/05/08 00:59:34;;;;;;;3.77;3.47;;;9.30;58.80;;;;;;5049971;28;21071;-53
2021/05/08 01:02:01;;;;;;;3.03;2.83;;;9.30;58.80;;;;;;5050781;28;20686;-53
2021/05/08 01:04:27;;;;;;;3.80;3.50;;;9.30;58.90;;;;;;5050477;28;20618;-53
2021/05/08 01:06:54;;;;;;;3.17;2.97;;;9.30;58.90;;;;;;5050036;28;20636;-53
2021/05/08 01:09:22;;;;;;;2.93;2.73;;;9.20;58.90;;;;;;5049685;28;20700;-53
2021/05/08 01:11:50;;;;;;;4.63;3.30;;;9.20;59.30;;;;;;5049894;28;20993;-53
2021/05/08 01:14:17;;;;;;;3.13;2.87;;;9.20;59.80;;;;;;5051206;28;20629;-53
2021/05/08 01:16:44;;;;;;;3.07;2.87;;;9.30;60.50;;;;;;5050044;28;20625;-53
2021/05/08 01:19:11;;;;;;;3.23;2.93;;;9.30;60.30;;;;;;5050603;28;21279;-53
2021/05/08 01:21:39;;;;;;;3.57;3.27;;;9.20;60.20;;;;;;5045925;28;20627;-53
2021/05/08 01:24:06;;;;;;;3.63;3.33;;;9.20;59.60;;;;;;5050265;28;20679;-54
2021/05/08 01:26:33;;;;;;;4.10;3.33;;;9.10;59.30;;;;;;5043402;28;20678;-53
2021/05/08 01:29:00;;;;;;;3.87;3.00;;;9.10;59.30;;;;;;5051808;28;21086;-54
2021/05/08 01:31:27;;;;;;;4.80;3.20;;;9.00;59.50;;;;;;5053858;28;20629;-53
2021/05/08 01:33:53;;;;;;;2.87;2.67;;;9.00;59.50;;;;;;5053940;28;20633;-54
2021/05/08 01:36:20;;;;;;;3.10;2.80;;;8.90;59.40;;;;;;5066720;28;20632;-53
2021/05/08 01:38:48;;;;;;;2.70;2.50;;;8.80;59.50;;;;;;5055093;28;21265;-53
2021/05/08 01:41:15;;;;;;;3.47;2.63;;;8.70;59.80;;;;;;5061728;28;20624;-53
2021/05/08 01:43:41;;;;;;;3.50;3.20;;;8.70;60.40;;;;;;5070766;28;20689;-53
2021/05/08 01:46:08;;;;;;;3.00;2.80;;;8.60;60.60;;;;;;5053239;28;20641;-53
2021/05/08 01:48:35;;;;;;;3.13;2.83;;;8.60;60.70;;;;;;5060926;28;20667;-53
2021/05/08 01:51:01;;;;;;;3.10;2.90;;;8.60;60.90;;;;;;5073233;28;20884;-53
2021/05/08 01:53:28;;;;;;;3.47;3.27;;;8.60;61.30;;;;;;5054870;28;20628;-53
2021/05/08 01:55:56;;;;;;;2.90;2.70;;;8.50;62.00;;;;;;5052041;28;20713;-53
2021/05/08 01:58:23;;;;;;;3.33;3.03;;;8.40;61.30;;;;;;5052933;28;20737;-53
2021/05/08 02:00:50;;;;;;;3.37;2.80;;;8.40;61.50;;;;;;5052271;28;20682;-53
2021/05/08 02:03:17;;;;;;;2.97;2.77;;;8.40;62.20;;;;;;5052852;28;20647;-53
2021/05/08 02:05:45;;;;;;;4.07;3.20;;;8.30;62.30;;;;;;5053143;28;20624;-54
2021/05/08 02:08:12;;;;;;;3.43;3.13;;;8.30;62.50;;;;;;5051783;28;21058;-53
2021/05/08 02:10:40;;;;;;;4.10;3.70;;;8.30;62.60;;;;;;5052482;28;20680;-53
2021/05/08 02:13:08;;;;;;;3.50;3.20;;;8.30;62.70;;;;;;5052799;28;20623;-53
2021/05/08 02:15:35;;;;;;;2.67;2.47;;;8.30;63.50;;;;;;5052803;28;20640;-53
2021/05/08 02:18:02;;;;;;;3.33;3.03;;;8.30;64.80;;;;;;5051676;28;20682;-54
2021/05/08 02:20:29;;;;;;;4.50;3.43;;;8.30;66.10;;;;;;5052437;28;20637;-53
2021/05/08 02:22:56;;;;;;;3.20;2.70;;;8.30;65.60;;;;;;5042241;28;20626;-52
2021/05/08 02:25:23;;;;;;;3.13;2.40;;;8.30;66.50;;;;;;5036796;28;21028;-53
2021/05/08 02:27:50;;;;;;;3.07;2.73;;;8.20;66.50;;;;;;5051909;28;20677;-53
2021/05/08 02:30:19;;;;;;;3.20;2.33;;;8.20;66.00;;;;;;5052212;28;20664;-53
2021/05/08 02:32:46;;;;;;;3.20;2.93;;;8.10;65.80;;;;;;5051958;28;20640;-53
2021/05/08 02:35:13;;;;;;;4.00;2.77;;;8.10;66.30;;;;;;5052543;28;20630;-53
2021/05/08 02:37:40;;;;;;;3.90;3.60;;;8.10;66.50;;;;;;5052083;28;20626;-53
2021/05/08 02:40:08;;;;;;;3.00;2.70;;;8.20;66.40;;;;;;5042317;28;20710;-53
2021/05/08 02:42:35;;;;;;;3.27;2.97;;;8.10;65.90;;;;;;5032284;28;20632;-53
2021/05/08 02:45:02;;;;;;;3.50;3.10;;;8.10;66.00;;;;;;5032512;28;20711;-53
2021/05/08 02:47:29;;;;;;;2.80;2.60;;;8.10;66.80;;;;;;5031234;28;20661;-54
2021/05/08 02:49:56;;;;;;;2.70;2.50;;;8.10;67.10;;;;;;5032253;28;20656;-53
2021/05/08 02:52:23;;;;;;;3.10;2.80;;;8.10;67.30;;;;;;5032268;28;20642;-53
2021/05/08 02:54:50;;;;;;;3.70;3.50;;;8.10;67.30;;;;;;5045300;28;20678;-53
2021/05/08 02:57:16;;;;;;;3.00;2.70;;;8.20;68.00;;;;;;5052148;28;20678;-53
2021/05/08 02:59:43;;;;;;;4.53;4.13;;;8.20;67.90;;;;;;5052170;28;20676;-53
2021/05/08 03:02:10;;;;;;;7.40;3.30;;;8.20;67.30;;;;;;5052134;28;20633;-53
2021/05/08 03:04:38;;;;;;;3.50;3.20;;;8.10;67.10;;;;;;5051521;28;20706;-53
2021/05/08 03:07:04;;;;;;;2.90;2.60;;;8.10;67.40;;;;;;5050906;28;20633;-53
2021/05/08 03:09:32;;;;;;;4.60;2.70;;;8.10;67.60;;;;;;5050850;28;20720;-53
2021/05/08 03:11:59;;;;;;;2.73;2.53;;;8.00;67.40;;;;;;5052177;28;20627;-53
2021/05/08 03:14:26;;;;;;;6.60;3.63;;;8.00;67.60;;;;;;5052161;28;20984;-53
2021/05/08 03:16:52;;;;;;;2.77;2.50;;;8.00;67.90;;;;;;5052087;28;21203;-53
2021/05/08 03:19:19;;;;;;;6.07;3.47;;;8.00;68.40;;;;;;5051489;28;21214;-54
2021/05/08 03:21:47;;;;;;;3.93;3.20;;;8.00;68.80;;;;;;5050593;28;21454;-53
2021/05/08 03:24:13;;;;;;;3.43;3.13;;;8.00;69.00;;;;;;5051646;28;20631;-53
2021/05/08 03:26:40;;;;;;;3.30;3.00;;;8.00;69.10;;;;;;5051130;28;20632;-53
2021/05/08 03:29:07;;;;;;;3.47;3.07;;;8.10;69.30;;;;;;5051170;28;20668;-54
2021/05/08 03:31:34;;;;;;;3.40;3.10;;;8.10;69.50;;;;;;5051566;28;20631;-53
2021/05/08 03:34:00;;;;;;;2.87;2.67;;;8.10;69.50;;;;;;5051066;28;21260;-54
2021/05/08 03:36:27;;;;;;;3.73;3.43;;;8.10;69.60;;;;;;5058438;28;20677;-53
2021/05/08 03:38:55;;;;;;;2.67;2.40;;;8.10;69.50;;;;;;5050465;28;20660;-53
2021/05/08 03:41:21;;;;;;;3.10;2.90;;;8.10;69.50;;;;;;5051188;28;20626;-54
2021/05/08 03:43:48;;;;;;;3.30;3.10;;;8.10;70.20;;;;;;5050655;28;20712;-53
2021/05/08 03:46:15;;;;;;;4.63;3.23;;;8.10;70.00;;;;;;5050352;28;20697;-53
2021/05/08 03:48:42;;;;;;;3.83;3.53;;;8.00;69.40;;;;;;5050596;28;20668;-53
2021/05/08 03:51:08;;;;;;;3.60;3.30;;;8.00;69.10;;;;;;5050698;28;20697;-52
2021/05/08 03:53:35;;;;;;;4.00;3.47;;;8.00;70.10;;;;;;5050422;28;20652;-53
2021/05/08 03:56:03;;;;;;;3.63;3.40;;;8.00;70.60;;;;;;5050471;28;21253;-53
2021/05/08 03:58:31;;;;;;;5.33;3.07;;;8.00;70.90;;;;;;5050761;28;20659;-53
2021/05/08 04:00:58;;;;;;;3.10;2.90;;;8.00;70.80;;;;;;5050534;28;20709;-53
2021/05/08 04:03:25;;;;;;;4.53;4.13;;;8.00;70.10;;;;;;5050926;28;20632;-53
2021/05/08 04:05:52;;;;;;;4.30;3.90;;;8.00;69.50;;;;;;5051015;28;21006;-53
2021/05/08 04:08:19;;;;;;;4.13;3.73;;;7.90;69.40;;;;;;5049274;28;20824;-52
2021/05/08 04:10:46;;;;;;;5.30;4.60;;;7.90;69.70;;;;;;5050864;28;20727;-53
2021/05/08 04:13:14;;;;;;;5.90;5.40;;;7.90;69.80;;;;;;5050415;28;20624;-53
2021/05/08 04:15:41;;;;;;;7.63;6.87;;;7.90;69.60;;;;;;5050591;28;20627;-52
2021/05/08 04:18:08;;;;;;;6.23;5.63;;;7.80;69.50;;;;;;5050418;28;20712;-53
2021/05/08 04:20:34;;;;;;;6.20;5.60;;;7.80;69.30;;;;;;5050573;28;20703;-53
2021/05/08 04:23:01;;;;;;;5.43;4.90;;;7.80;69.30;;;;;;5050403;28;20669;-53
2021/05/08 04:25:28;;;;;;;6.93;6.23;;;7.70;69.70;;;;;;5050438;28;20626;-53
2021/05/08 04:27:55;;;;;;;5.67;4.40;;;7.70;70.40;;;;;;5046629;28;20682;-53
2021/05/08 04:30:23;;;;;;;4.93;4.40;;;7.70;70.50;;;;;;5030659;28;21027;-54
2021/05/08 04:32:49;;;;;;;6.23;4.90;;;7.70;70.50;;;;;;5038369;28;20681;-53
2021/05/08 04:35:16;;;;;;;7.17;4.80;;;7.70;70.60;;;;;;5050648;28;20632;-53
2021/05/08 04:37:43;;;;;;;6.07;5.47;;;7.70;70.60;;;;;;5049954;28;20685;-53
2021/05/08 04:40:11;;;;;;;4.57;4.10;;;7.70;70.90;;;;;;5050096;28;20706;-53
2021/05/08 04:42:37;;;;;;;3.67;3.37;;;7.60;70.90;;;;;;5050106;28;20694;-53
2021/05/08 04:45:05;;;;;;;4.20;3.80;;;7.60;71.10;;;;;;5050179;28;20681;-53
2021/05/08 04:47:33;;;;;;;5.33;4.87;;;7.60;71.50;;;;;;5052667;28;20688;-53
2021/05/08 04:50:02;;;;;;;4.77;4.37;;;7.60;71.60;;;;;;5064279;28;20738;-53
2021/05/08 04:52:28;;;;;;;7.77;5.47;;;7.60;71.60;;;;;;5050319;28;20633;-52
2021/05/08 04:54:55;;;;;;;4.80;3.93;;;7.60;71.70;;;;;;5050310;28;20705;-54
2021/05/08 04:57:22;;;;;;;6.23;4.70;;;7.70;72.10;;;;;;5050003;28;20628;-54
2021/05/08 04:59:49;;;;;;;4.80;4.30;;;7.70;72.20;;;;;;5050433;28;20654;-54
2021/05/08 05:02:15;;;;;;;5.57;4.10;;;7.70;72.30;;;;;;5050199;28;20669;-53
2021/05/08 05:04:43;;;;;;;6.00;4.27;;;7.80;72.20;;;;;;5051992;28;20619;-51
2021/05/08 05:07:10;;;;;;;5.77;4.30;;;7.80;72.20;;;;;;5053089;28;20632;-52
2021/05/08 05:09:36;;;;;;;5.27;4.80;;;7.80;72.60;;;;;;5053551;28;20653;-52
2021/05/08 05:12:03;;;;;;;4.80;4.40;;;7.90;72.60;;;;;;5053869;28;20659;-52
2021/05/08 05:14:30;;;;;;;6.13;5.47;;;7.90;72.20;;;;;;5053697;28;20651;-52
2021/05/08 05:16:57;;;;;;;5.97;5.00;;;8.00;72.20;;;;;;5053622;28;20681;-52
2021/05/08 05:19:24;;;;;;;5.17;4.73;;;8.00;72.20;;;;;;5052712;28;20678;-53
2021/05/08 05:21:51;;;;;;;7.40;5.00;;;8.10;71.90;;;;;;5052199;28;20697;-52
2021/05/08 05:24:18;;;;;;;5.00;4.60;;;8.10;71.60;;;;;;5053648;28;21178;-53
2021/05/08 05:26:45;;;;;;;4.60;4.20;;;8.20;71.50;;;;;;5053493;28;20666;-52
2021/05/08 05:29:12;;;;;;;5.63;5.07;;;8.20;71.40;;;;;;5051673;28;20668;-53
2021/05/08 05:31:38;;;;;;;4.93;4.40;;;8.30;70.70;;;;;;5052531;28;20629;-53
2021/05/08 05:34:05;;;;;;;5.17;4.67;;;8.40;70.40;;;;;;5053193;28;20625;-53
2021/05/08 05:36:32;;;;;;;6.97;5.20;;;8.50;70.10;;;;;;5053063;28;20637;-53
2021/05/08 05:39:00;;;;;;;4.83;4.47;;;8.50;69.70;;;;;;5053005;28;20715;-53
2021/05/08 05:41:27;;;;;;;6.67;6.07;;;8.60;69.20;;;;;;5053628;28;20622;-55
2021/05/08 05:43:54;;;;;;;7.17;6.57;;;8.70;68.60;;;;;;5053678;28;20706;-54
2021/05/08 05:46:20;;;;;;;6.80;6.20;;;8.80;67.70;;;;;;5061789;28;20709;-53
2021/05/08 05:48:47;;;;;;;6.57;5.97;;;8.80;66.80;;;;;;5072558;28;20669;-54
2021/05/08 05:51:14;;;;;;;7.63;6.90;;;8.90;66.50;;;;;;5072938;28;20633;-54
2021/05/08 05:53:41;;;;;;;7.27;6.67;;;8.90;66.10;;;;;;5072885;28;20628;-54
2021/05/08 05:56:09;;;;;;;7.40;6.80;;;8.90;65.60;;;;;;5073176;28;20596;-53
2021/05/08 05:58:35;;;;;;;8.83;6.50;;;9.00;65.10;;;;;;5062872;28;20653;-54
2021/05/08 06:01:02;;;;;;;6.90;6.40;;;9.00;64.60;;;;;;5052857;28;20663;-54
2021/05/08 06:03:29;;;;;;;9.73;6.40;;;9.00;64.20;;;;;;5052770;28;20640;-54
2021/05/08 06:05:56;;;;;;;7.43;6.73;;;9.00;63.90;;;;;;5052449;28;20641;-53
2021/05/08 06:08:22;;;;;;;7.00;6.30;;;9.10;63.60;;;;;;5052721;28;20666;-53
2021/05/08 06:10:49;;;;;;;6.40;5.90;;;9.30;63.10;;;;;;5053058;28;20751;-53
2021/05/08 06:13:17;;;;;;;6.97;6.40;;;9.40;62.00;;;;;;5052464;28;20738;-54
2021/05/08 06:15:43;;;;;;;7.10;6.50;;;9.50;61.70;;;;;;5052308;28;20622;-53
2021/05/08 06:18:10;;;;;;;7.53;6.83;;;9.60;61.50;;;;;;5052232;28;20638;-54
2021/05/08 06:20:37;;;;;;;6.20;5.73;;;9.70;61.30;;;;;;5050989;28;20744;-54
2021/05/08 06:23:04;;;;;;;7.77;7.07;;;9.80;61.00;;;;;;5052662;28;21247;-54
2021/05/08 06:25:30;;;;;;;7.37;6.70;;;9.90;60.00;;;;;;5051107;28;20982;-54
2021/05/08 06:27:57;;;;;;;7.20;6.50;;;9.90;59.50;;;;;;5052250;28;20618;-54
2021/05/08 06:30:25;;;;;;;6.97;6.37;;;10.00;58.70;;;;;;5052380;28;20708;-53
2021/05/08 06:32:52;;;;;;;7.47;6.77;;;10.10;58.90;;;;;;5052105;28;20641;-52
2021/05/08 06:35:18;;;;;;;8.20;7.50;;;10.10;58.80;;;;;;5055652;28;20618;-52
2021/05/08 06:37:49;;;;;;;8.63;7.87;;;10.20;58.50;;;;;;5067122;28;21017;-52
2021/05/08 06:40:15;;;;;;;8.93;7.90;;;10.30;58.60;;;;;;5057466;28;20653;-53
2021/05/08 06:42:42;;;;;;;8.27;7.47;;;10.40;58.40;;;;;;5053546;28;20625;-53
2021/05/08 06:45:10;;;;;;;7.50;6.60;;;10.50;58.30;;;;;;5061160;28;20633;-53
2021/05/08 06:47:39;;;;;;;9.17;6.93;;;10.60;58.20;;;;;;5054757;28;20691;-53
2021/05/08 06:50:06;;;;;;;7.23;6.70;;;10.80;58.00;;;;;;5065161;22;20662;-58
2021/05/08 06:52:32;;;;;;;7.50;6.90;;;10.80;57.70;;;;;;5038537;28;20681;-57
2021/05/08 06:54:59;;;;;;;12.33;8.90;;;10.90;57.50;;;;;;5040485;28;20665;-56
2021/05/08 06:57:26;;;;;;;10.43;9.43;;;11.10;56.80;;;;;;5044951;28;20626;-58
2021/05/08 06:59:53;;;;;;;34.03;24.70;;;11.20;56.70;;;;;;5043090;28;20633;-57
2021/05/08 07:02:20;;;;;;;12.50;11.30;;;11.50;56.50;;;;;;5050235;28;20706;-57
2021/05/08 07:04:47;;;;;;;7.10;6.47;;;11.70;55.40;;;;;;5046936;28;20624;-56
2021/05/08 07:07:14;;;;;;;6.53;6.03;;;12.00;54.80;;;;;;5044362;28;20798;-60
2021/05/08 07:09:41;;;;;;;6.10;5.50;;;12.20;54.30;;;;;;5045558;28;20655;-56
2021/05/08 07:12:09;;;;;;;6.43;5.83;;;12.50;53.90;;;;;;5044672;28;20658;-58
2021/05/08 07:14:36;;;;;;;6.70;6.20;;;12.70;53.60;;;;;;5042294;28;20618;-58
2021/05/08 07:17:03;;;;;;;7.40;6.80;;;13.00;51.60;;;;;;5034576;28;20635;-58
2021/05/08 07:19:29;;;;;;;7.67;7.07;;;13.00;50.10;;;;;;5033982;28;20676;-57
2021/05/08 07:21:58;;;;;;;6.73;6.23;;;13.00;50.50;;;;;;5035913;28;21256;-60
2021/05/08 07:24:25;;;;;;;7.27;6.57;;;13.00;50.40;;;;;;5033763;28;20721;-58
2021/05/08 07:26:52;;;;;;;8.90;7.10;;;13.10;50.00;;;;;;5042549;28;20631;-57
2021/05/08 07:29:19;;;;;;;6.40;5.87;;;13.30;49.80;;;;;;5033295;28;21325;-58
2021/05/08 07:31:46;;;;;;;7.43;6.30;;;13.50;49.30;;;;;;5042627;28;21064;-59
2021/05/08 07:34:12;;;;;;;6.10;5.60;;;13.70;48.70;;;;;;5032681;28;20662;-59
2021/05/08 07:36:39;;;;;;;6.40;5.80;;;13.90;48.40;;;;;;5032833;28;20623;-59
2021/05/08 07:39:07;;;;;;;6.70;6.10;;;14.00;47.00;;;;;;5037152;28;20748;-60
2021/05/08 07:41:34;;;;;;;7.33;6.73;;;14.10;46.20;;;;;;5045906;28;20671;-60
2021/05/08 07:44:02;;;;;;;6.33;5.83;;;14.20;46.10;;;;;;5052841;28;20626;-60
2021/05/08 07:46:30;;;;;;;7.63;6.67;;;14.30;46.00;;;;;;5040647;28;20623;-60
2021/05/08 07:48:57;;;;;;;7.10;6.40;;;14.40;45.30;;;;;;5032028;28;20681;-60
2021/05/08 07:51:23;;;;;;;7.23;6.17;;;14.50;45.30;;;;;;5031737;28;21380;-58
2021/05/08 07:53:50;;;;;;;6.90;6.03;;;14.60;45.00;;;;;;5031063;28;20676;-58
2021/05/08 07:56:18;;;;;;;5.97;5.40;;;14.80;43.90;;;;;;5044989;28;20619;-59
2021/05/08 07:58:45;;;;;;;5.20;4.70;;;14.70;43.10;;;;;;5039918;28;20791;-58
2021/05/08 08:01:12;;;;;;;5.93;5.37;;;14.80;43.50;;;;;;5034006;28;21113;-57
2021/05/08 08:03:38;;;;;;;4.17;3.83;;;14.90;43.30;;;;;;5046192;28;20625;-60
2021/05/08 08:06:05;;;;;;;5.83;5.33;;;15.20;42.80;;;;;;5036312;28;20619;-58
2021/05/08 08:08:32;;;;;;;5.20;4.70;;;15.40;43.20;;;;;;5034399;28;20619;-58
2021/05/08 08:10:59;;;;;;;4.40;4.10;;;15.70;42.80;;;;;;5050327;28;20727;-61
2021/05/08 08:13:27;;;;;;;5.53;5.13;;;15.90;41.50;;;;;;5043657;28;21168;-58
2021/05/08 08:15:54;;;;;;;4.10;3.70;;;16.00;41.30;;;;;;5031714;28;20615;-59
2021/05/08 08:18:22;;;;;;;5.33;4.83;;;16.10;41.40;;;;;;5030940;28;20627;-59
2021/05/08 08:20:48;;;;;;;3.83;3.60;;;16.00;40.20;;;;;;5030390;28;20895;-59
2021/05/08 08:23:15;;;;;;;5.20;4.70;;;15.80;40.60;;;;;;5031633;28;20622;-59
2021/05/08 08:25:42;;;;;;;5.40;4.57;;;15.60;40.60;;;;;;5031297;28;20627;-57
2021/05/08 08:28:09;;;;;;;5.27;4.57;;;15.70;41.00;;;;;;5031175;28;20654;-58
2021/05/08 08:30:37;;;;;;;4.43;4.03;;;15.80;40.60;;;;;;5031399;28;20663;-58
2021/05/08 08:33:04;;;;;;;4.53;4.13;;;16.00;40.80;;;;;;5030289;28;20674;-59
2021/05/08 08:35:31;;;;;;;5.43;4.93;;;16.10;39.90;;;;;;5027272;28;20630;-60
2021/05/08 08:37:57;;;;;;;4.40;4.10;;;16.20;39.70;;;;;;5030418;28;20631;-58
2021/05/08 08:40:24;;;;;;;4.50;4.20;;;16.20;39.70;;;;;;5030737;28;20691;-58
2021/05/08 08:42:51;;;;;;;4.57;4.17;;;16.30;38.80;;;;;;5024534;28;20628;-58
2021/05/08 08:45:18;;;;;;;5.57;4.10;;;16.30;38.70;;;;;;5019980;28;20638;-57
2021/05/08 08:47:45;;;;;;;5.67;5.17;;;16.30;38.80;;;;;;5030961;28;20627;-58
2021/05/08 08:50:13;;;;;;;4.67;4.27;;;16.30;39.00;;;;;;5027370;28;20699;-57
2021/05/08 08:52:40;;;;;;;4.50;4.10;;;16.30;39.20;;;;;;5030684;28;20650;-57
2021/05/08 08:55:07;;;;;;;8.63;4.97;;;16.30;39.00;;;;;;5030833;28;20631;-59
2021/05/08 08:57:36;;;;;;;5.10;4.13;;;16.30;39.50;;;;;;5030707;28;21030;-60
2021/05/08 09:00:05;;;;;;;4.83;4.37;;;16.40;39.70;;;;;;5043276;28;20664;-58
2021/05/08 09:02:31;;;;;;;6.67;4.57;;;16.60;40.10;;;;;;5030664;28;21170;-59
2021/05/08 09:04:59;;;;;;;5.07;4.57;;;16.80;39.60;;;;;;5030197;28;20631;-58
2021/05/08 09:07:27;;;;;;;4.13;3.80;;;16.80;39.00;;;;;;5029490;28;20639;-58
2021/05/08 09:09:54;;;;;;;3.47;3.17;;;16.80;39.00;;;;;;5029987;28;20705;-60
2021/05/08 09:12:26;;;;;;;4.40;4.00;;;16.90;38.20;;;;;;5031524;28;20633;-59
2021/05/08 09:14:52;;;;;;;4.83;4.00;;;16.90;37.80;;;;;;5030570;28;20634;-58
2021/05/08 09:17:21;;;;;;;4.27;3.87;;;16.90;37.00;;;;;;5031021;28;20655;-59
2021/05/08 09:19:54;;;;;;;5.00;4.50;;;16.90;37.40;;;;;;5026443;28;20982;-59
2021/05/08 09:22:27;;;;;;;4.50;4.10;;;17.00;37.30;;;;;;5019823;28;20685;-58
2021/05/08 09:24:59;;;;;;;5.13;4.60;;;17.00;36.90;;;;;;5030485;28;20673;-59
2021/05/08 09:27:46;;;;;;;9.33;4.80;;;17.00;37.30;;;;;;5031236;28;21164;-58
2021/05/08 09:30:18;;;;;;;3.70;3.40;;;17.10;38.10;;;;;;5038038;28;20673;-58
2021/05/08 09:32:46;;;;;;;4.67;3.47;;;17.30;37.50;;;;;;5031336;28;20693;-56
2021/05/08 09:35:15;;;;;;;6.63;4.13;;;17.30;36.00;;;;;;5030808;28;20704;-58
2021/05/08 09:37:43;;;;;;;3.23;2.83;;;17.30;35.40;;;;;;5030515;28;20631;-58
2021/05/08 09:40:22;;;;;;;4.33;3.10;;;17.20;34.40;;;;;;5030854;28;21176;-59
2021/05/08 09:42:51;;;;;;;5.20;3.87;;;17.20;34.60;;;;;;5030335;28;20622;-58
2021/05/08 09:45:18;;;;;;;4.63;3.23;;;17.20;34.40;;;;;;5020029;28;20636;-59
2021/05/08 09:47:45;;;;;;;6.20;3.83;;;17.30;34.10;;;;;;5013321;28;20634;-58
2021/05/08 09:50:12;;;;;;;2.90;2.60;;;17.40;34.50;;;;;;5031898;28;20659;-58
2021/05/08 09:52:51;;;;;;;3.40;3.10;;;17.50;34.60;;;;;;5034720;28;21112;-59
2021/05/08 09:55:18;;;;;;;3.50;3.13;;;17.60;34.30;;;;;;5034677;28;20631;-58
2021/05/08 09:57:56;;;;;;;3.50;3.20;;;17.70;34.40;;;;;;5034052;28;21203;-57
2021/05/08 10:00:33;;;;;;;2.53;2.33;;;17.70;34.00;;;;;;5033935;28;20649;-59
2021/05/08 10:03:09;;;;;;;4.33;3.33;;;17.60;32.80;;;;;;5032469;28;20642;-58
2021/05/08 10:05:35;;;;;;;2.47;2.27;;;17.60;32.70;;;;;;5034186;28;20622;-59
2021/05/08 10:08:03;;;;;;;2.50;2.10;;;17.60;33.00;;;;;;5034064;28;20677;-58
2021/05/08 10:10:30;;;;;;;2.57;2.37;;;17.60;32.90;;;;;;5034699;28;20675;-59
2021/05/08 10:12:57;;;;;;;3.60;2.60;;;17.60;32.10;;;;;;5032304;28;21206;-57
2021/05/08 10:15:24;;;;;;;2.67;2.47;;;17.60;32.50;;;;;;5022525;28;20643;-58
2021/05/08 10:17:51;;;;;;;6.03;2.90;;;17.70;32.10;;;;;;5015306;28;20627;-59
2021/05/08 10:20:19;;;;;;;3.93;2.70;;;17.90;32.20;;;;;;5014515;28;20654;-57
2021/05/08 10:22:47;;;;;;;2.97;1.40;;;18.10;31.60;;;;;;5015169;28;20686;-57
2021/05/08 10:25:15;;;;;;;2.70;2.00;;;18.40;30.70;;;;;;5014292;28;20631;-58
2021/05/08 10:27:42;;;;;;;3.90;2.10;;;18.50;30.50;;;;;;5013812;28;21188;-58
2021/05/08 10:30:16;;;;;;;4.00;2.80;;;18.50;30.00;;;;;;5029315;28;20658;-57
2021/05/08 10:32:44;;;;;;;5.37;2.20;;;18.60;30.00;;;;;;5033569;28;20634;-58
2021/05/08 10:35:12;;;;;;;2.30;1.83;;;18.70;30.10;;;;;;5034188;28;20684;-59
2021/05/08 10:37:39;;;;;;;2.23;1.07;;;18.90;30.40;;;;;;5033091;28;20637;-59
2021/05/08 10:40:15;;;;;;;2.07;1.87;;;18.80;29.00;;;;;;5033830;28;20709;-57
2021/05/08 10:42:43;;;;;;;1.93;1.73;;;18.70;29.10;;;;;;5031818;28;21167;-57
2021/05/08 10:45:32;;;;;;;5.13;2.23;;;18.70;28.90;;;;;;5029182;28;20624;-57
2021/05/08 10:48:12;;;;;;;2.07;1.67;;;18.60;28.70;;;;;;5032860;28;20963;-58
2021/05/08 10:50:54;;;;;;;1.93;1.40;;;18.50;29.40;;;;;;5029084;28;21288;-57
2021/05/08 10:53:21;;;;;;;2.50;2.30;;;18.50;30.00;;;;;;5025044;28;21178;-57
2021/05/08 10:55:51;;;;;;;2.97;2.00;;;18.60;29.70;;;;;;5030862;28;20640;-58
2021/05/08 10:58:37;;;;;;;3.40;1.90;;;18.70;29.40;;;;;;5029187;28;20643;-58
2021/05/08 11:01:08;;;;;;;2.37;1.70;;;18.70;29.10;;;;;;5030219;28;20708;-57
2021/05/08 11:04:03;;;;;;;2.80;1.87;;;18.70;29.10;;;;;;5033379;28;20622;-57
2021/05/08 11:06:30;;;;;;;4.73;1.60;;;18.90;29.10;;;;;;5033091;28;20623;-58
2021/05/08 11:08:57;;;;;;;2.90;2.10;;;19.00;29.00;;;;;;5032942;28;20669;-57
2021/05/08 11:11:40;;;;;;;1.90;1.70;;;19.20;28.90;;;;;;5032900;28;20701;-56
2021/05/08 11:14:07;;;;;;;1.87;1.73;;;19.40;28.30;;;;;;5032987;28;21105;-56
2021/05/08 11:16:34;;;;;;;2.80;2.00;;;19.60;28.20;;;;;;5031942;28;20993;-58
2021/05/08 11:19:01;;;;;;;2.00;1.40;;;19.90;28.20;;;;;;5033510;28;20650;-56
2021/05/08 11:21:43;;;;;;;2.17;1.97;;;20.20;27.50;;;;;;5039289;28;20709;-57
2021/05/08 11:24:11;;;;;;;4.50;1.97;;;20.40;26.90;;;;;;5033088;28;20635;-57
2021/05/08 11:26:43;;;;;;;2.00;1.80;;;20.40;26.70;;;;;;5032657;28;20673;-56
2021/05/08 11:29:11;;;;;;;2.87;2.57;;;20.60;27.20;;;;;;5032390;28;20619;-56
2021/05/08 11:31:39;;;;;;;2.10;2.00;;;20.60;26.90;;;;;;5032017;28;20671;-57
2021/05/08 11:34:10;;;;;;;3.00;1.93;;;20.90;27.20;;;;;;5022971;28;21007;-56
2021/05/08 11:36:48;;;;;;;2.47;1.80;;;21.30;26.80;;;;;;5011469;28;21274;-58
2021/05/08 11:39:15;;;;;;;2.50;1.67;;;21.60;26.40;;;;;;5012562;28;20631;-59
2021/05/08 11:41:43;;;;;;;2.07;1.23;;;21.40;25.90;;;;;;5025850;28;21011;-56
2021/05/08 11:44:18;;;;;;;2.77;1.83;;;21.10;25.80;;;;;;5032106;28;20623;-57
2021/05/08 11:46:51;;;;;;;1.83;1.60;;;20.70;25.60;;;;;;5032183;28;20622;-60
2021/05/08 11:49:24;;;;;;;1.40;1.30;;;20.40;25.70;;;;;;5028214;28;20680;-56
2021/05/08 11:51:50;;;;;;;4.63;2.50;;;20.20;26.00;;;;;;5027320;28;20705;-58
2021/05/08 11:54:17;;;;;;;3.53;1.87;;;20.00;26.50;;;;;;5029233;28;20697;-57
2021/05/08 11:56:45;;;;;;;2.70;2.13;;;19.80;26.30;;;;;;5032751;28;20629;-58
2021/05/08 11:59:12;;;;;;;1.50;1.37;;;19.70;26.80;;;;;;5030274;28;20774;-59
2021/05/08 12:01:39;;;;;;;2.87;1.90;;;19.60;26.40;;;;;;5028667;28;21081;-59
2021/05/08 12:04:06;;;;;;;2.47;1.73;;;19.40;26.40;;;;;;5032022;28;20626;-60
2021/05/08 12:06:33;;;;;;;2.73;2.10;;;19.40;26.50;;;;;;5031864;28;20966;-58
2021/05/08 12:09:08;;;;;;;2.50;2.07;;;19.40;27.10;;;;;;5030234;28;20955;-58
2021/05/08 12:11:35;;;;;;;2.40;1.67;;;19.40;27.20;;;;;;5032039;28;21443;-58
2021/05/08 12:14:12;;;;;;;2.03;1.73;;;19.30;27.50;;;;;;5032233;28;20630;-58
2021/05/08 12:16:39;;;;;;;1.80;1.43;;;19.20;27.80;;;;;;5032872;28;21206;-58
2021/05/08 12:19:06;;;;;;;3.33;1.87;;;19.10;27.40;;;;;;5032604;28;20635;-58
2021/05/08 12:21:33;;;;;;;2.40;2.20;;;19.10;27.60;;;;;;5030818;28;20650;-57
2021/05/08 12:24:00;;;;;;;1.67;1.50;;;19.00;27.50;;;;;;5031062;28;20688;-57
2021/05/08 12:26:27;;;;;;;2.60;1.70;;;19.00;27.90;;;;;;5033836;28;20618;-57
2021/05/08 12:28:55;;;;;;;2.50;2.30;;;18.90;28.20;;;;;;5014153;28;20717;-57
2021/05/08 12:31:24;;;;;;;1.93;1.77;;;18.90;28.30;;;;;;5030830;28;20988;-56
2021/05/08 12:33:51;;;;;;;2.67;1.50;;;18.90;27.80;;;;;;5033149;28;20693;-57
2021/05/08 12:36:19;;;;;;;11.53;10.37;;;18.90;27.60;;;;;;5033325;28;20631;-58
2021/05/08 12:38:46;;;;;;;2.47;2.20;;;18.90;27.60;;;;;;5033325;28;20587;-58
2021/05/08 12:41:39;;;;;;;1.83;1.70;;;18.90;27.90;;;;;;5032408;28;21284;-58
2021/05/08 12:44:10;;;;;;;3.03;2.43;;;18.90;27.80;;;;;;5018131;28;20642;-59
2021/05/08 12:47:00;;;;;;;2.40;1.73;;;18.90;28.00;;;;;;5031895;28;20622;-59
2021/05/08 12:49:28;;;;;;;2.97;2.40;;;19.00;28.80;;;;;;5031676;28;20657;-58
2021/05/08 12:51:54;;;;;;;2.37;2.17;;;18.90;29.20;;;;;;5030930;28;20670;-59
2021/05/08 12:54:23;;;;;;;2.43;2.23;;;18.80;28.70;;;;;;5031626;28;20685;-59
2021/05/08 12:56:50;;;;;;;3.50;2.80;;;18.80;28.70;;;;;;5018855;28;20685;-57